createdAt,value
2022-11-23T00:01:41.759Z,38.53
2022-11-23T00:04:10.014Z,39.75
2022-11-23T00:06:37.496Z,38.67
2022-11-23T00:09:05.054Z,38.63
2022-11-23T00:11:35.340Z,39.70
2022-11-23T00:14:02.838Z,43.53
2022-11-23T00:16:31.935Z,43.08
2022-11-23T00:19:00.045Z,39.45
2022-11-23T00:21:28.265Z,43.13
2022-11-23T00:23:55.829Z,42.17
2022-11-23T00:26:23.518Z,40.47
2022-11-23T00:28:51.024Z,49.08
2022-11-23T00:31:19.452Z,42.83
2022-11-23T00:33:53.186Z,38.88
2022-11-23T00:36:21.259Z,49.00
2022-11-23T00:38:49.211Z,45.17
2022-11-23T00:41:17.587Z,40.72
2022-11-23T00:43:45.405Z,42.08
2022-11-23T00:46:15.086Z,41.55
2022-11-23T00:48:43.103Z,43.70
2022-11-23T00:51:12.665Z,41.05
2022-11-23T00:53:40.291Z,40.67
2022-11-23T00:56:08.174Z,37.35
2022-11-23T00:58:38.637Z,43.78
2022-11-23T01:01:08.191Z,43.13
2022-11-23T01:03:36.766Z,43.97
2022-11-23T01:06:05.737Z,39.80
2022-11-23T01:08:34.669Z,39.67
2022-11-23T01:11:02.984Z,38.42
2022-11-23T01:13:30.740Z,41.30
2022-11-23T01:15:58.529Z,43.15
2022-11-23T01:18:26.095Z,40.90
2022-11-23T01:20:53.533Z,49.25
2022-11-23T01:23:21.038Z,36.47
2022-11-23T01:25:54.319Z,42.03
2022-11-23T01:28:24.272Z,40.13
2022-11-23T01:30:51.722Z,40.80
2022-11-23T01:33:19.210Z,45.45
2022-11-23T01:35:46.737Z,38.65
2022-11-23T01:38:18.242Z,45.55
2022-11-23T01:40:46.106Z,46.08
2022-11-23T01:43:17.007Z,40.42
2022-11-23T01:45:45.261Z,43.95
2022-11-23T01:48:15.811Z,40.58
2022-11-23T01:50:43.532Z,47.30
2022-11-23T01:53:11.026Z,49.70
2022-11-23T01:55:39.172Z,43.95
2022-11-23T01:58:07.339Z,42.88
2022-11-23T02:00:36.298Z,44.58
2022-11-23T02:03:05.485Z,43.72
2022-11-23T02:05:35.061Z,42.95
2022-11-23T02:08:03.005Z,43.22
2022-11-23T02:10:31.427Z,43.42
2022-11-23T02:13:01.829Z,43.15
2022-11-23T02:15:29.440Z,42.92
2022-11-23T02:18:00.369Z,42.53
2022-11-23T02:20:27.901Z,39.75
2022-11-23T02:23:00.146Z,48.33
2022-11-23T02:25:34.317Z,41.90
2022-11-23T02:28:03.317Z,46.95
2022-11-23T02:30:31.337Z,40.15
2022-11-23T02:32:58.770Z,40.58
2022-11-23T02:35:26.241Z,43.05
2022-11-23T02:37:54.379Z,41.28
2022-11-23T02:40:26.893Z,42.67
2022-11-23T02:42:54.526Z,39.30
2022-11-23T02:45:28.039Z,40.38
2022-11-23T02:47:55.661Z,42.08
2022-11-23T02:50:23.158Z,40.00
2022-11-23T02:52:50.664Z,40.08
2022-11-23T02:55:18.158Z,42.45
2022-11-23T02:57:45.669Z,39.92
2022-11-23T03:00:13.897Z,36.65
2022-11-23T03:02:42.770Z,37.85
2022-11-23T03:05:10.310Z,39.30
2022-11-23T03:07:37.881Z,35.45
2022-11-23T03:10:06.143Z,36.03
2022-11-23T03:12:33.741Z,37.88
2022-11-23T03:15:01.226Z,38.58
2022-11-23T03:17:28.863Z,37.78
2022-11-23T03:19:57.688Z,35.63
2022-11-23T03:22:25.142Z,35.75
2022-11-23T03:24:52.576Z,36.72
2022-11-23T03:27:20.098Z,36.15
2022-11-23T03:29:47.548Z,37.05
2022-11-23T03:32:15.046Z,39.65
2022-11-23T03:34:42.517Z,37.45
2022-11-23T03:37:11.313Z,33.55
2022-11-23T03:39:41.719Z,33.88
2022-11-23T03:42:13.310Z,39.40
2022-11-23T03:44:40.854Z,36.58
2022-11-23T03:47:08.357Z,42.10
2022-11-23T03:49:35.858Z,33.38
2022-11-23T03:52:03.367Z,36.58
2022-11-23T03:54:32.256Z,36.58
2022-11-23T03:56:59.699Z,36.83
2022-11-23T03:59:27.221Z,35.05
2022-11-23T04:01:54.696Z,33.63
2022-11-23T04:04:22.158Z,37.63
2022-11-23T04:06:49.619Z,32.40
2022-11-23T04:09:17.257Z,34.13
2022-11-23T04:11:46.053Z,39.15
2022-11-23T04:14:13.497Z,38.42
2022-11-23T04:16:40.949Z,37.08
2022-11-23T04:19:08.464Z,36.53
2022-11-23T04:21:35.982Z,37.88
2022-11-23T04:24:03.605Z,37.15
2022-11-23T04:26:31.103Z,34.00
2022-11-23T04:28:59.901Z,40.42
2022-11-23T04:31:27.419Z,36.00
2022-11-23T04:33:55.773Z,30.50
2022-11-23T04:36:23.210Z,33.92
2022-11-23T04:38:50.725Z,37.03
2022-11-23T04:41:18.310Z,37.13
2022-11-23T04:43:45.785Z,38.58
2022-11-23T04:46:14.689Z,34.20
2022-11-23T04:48:42.205Z,38.08
2022-11-23T04:51:09.669Z,38.90
2022-11-23T04:53:37.169Z,37.75
2022-11-23T04:56:04.822Z,36.75
2022-11-23T04:58:34.544Z,36.22
2022-11-23T05:01:02.407Z,35.53
2022-11-23T05:03:34.843Z,37.17
2022-11-23T05:06:02.847Z,32.60
2022-11-23T05:08:30.607Z,35.42
2022-11-23T05:10:58.139Z,36.85
2022-11-23T05:13:25.589Z,39.83
2022-11-23T05:15:53.032Z,38.67
2022-11-23T05:18:20.518Z,38.80
2022-11-23T05:20:49.377Z,38.28
2022-11-23T05:23:16.841Z,42.60
2022-11-23T05:25:44.350Z,35.88
2022-11-23T05:28:38.507Z,39.78
2022-11-23T05:31:02.972Z,41.58
2022-11-23T05:33:30.516Z,37.28
2022-11-23T05:35:59.411Z,38.90
2022-11-23T05:38:26.922Z,39.00
2022-11-23T05:40:54.424Z,40.42
2022-11-23T05:43:21.960Z,35.53
2022-11-23T05:45:49.784Z,37.88
2022-11-23T05:48:17.376Z,34.63
2022-11-23T05:50:44.827Z,38.92
2022-11-23T05:53:13.644Z,37.75
2022-11-23T05:55:41.126Z,39.47
2022-11-23T05:58:08.639Z,40.33
2022-11-23T06:00:36.114Z,40.38
2022-11-23T06:03:03.913Z,31.55
2022-11-23T06:05:31.615Z,32.42
2022-11-23T06:07:59.094Z,39.55
2022-11-23T06:10:28.198Z,32.78
2022-11-23T06:12:55.624Z,33.50
2022-11-23T06:15:23.122Z,35.08
2022-11-23T06:17:50.577Z,30.92
2022-11-23T06:20:18.037Z,33.65
2022-11-23T06:22:45.509Z,33.47
2022-11-23T06:25:13.023Z,34.03
2022-11-23T06:27:41.871Z,33.72
2022-11-23T06:30:09.819Z,36.22
2022-11-23T06:32:37.254Z,35.45
2022-11-23T06:35:04.916Z,36.50
2022-11-23T06:37:32.343Z,31.00
2022-11-23T06:39:59.814Z,30.92
2022-11-23T06:42:42.568Z,34.40
2022-11-23T06:45:12.176Z,34.10
2022-11-23T06:47:39.670Z,34.85
2022-11-23T06:50:07.525Z,32.13
2022-11-23T06:52:34.974Z,35.13
2022-11-23T06:55:02.500Z,34.83
2022-11-23T06:57:29.972Z,31.90
2022-11-23T06:59:57.430Z,33.65
2022-11-23T07:02:26.381Z,32.05
2022-11-23T07:04:53.904Z,36.63
2022-11-23T07:07:21.554Z,32.58
2022-11-23T07:09:49.074Z,32.60
2022-11-23T07:12:16.578Z,31.65
2022-11-23T07:14:44.024Z,30.38
2022-11-23T07:17:16.154Z,34.60
2022-11-23T07:19:46.253Z,33.90
2022-11-23T07:22:13.734Z,36.63
2022-11-23T07:24:46.352Z,31.83
2022-11-23T07:27:14.263Z,33.55
2022-11-23T07:29:41.750Z,36.83
2022-11-23T07:32:09.229Z,31.65
2022-11-23T07:34:36.694Z,31.85
2022-11-23T07:37:05.592Z,38.13
2022-11-23T07:39:55.938Z,37.53
2022-11-23T07:42:41.537Z,37.78
2022-11-23T07:45:09.260Z,34.50
2022-11-23T07:47:36.717Z,38.83
2022-11-23T07:50:04.550Z,34.40
2022-11-23T07:52:35.113Z,36.78
2022-11-23T07:55:02.605Z,32.10
2022-11-23T07:57:30.120Z,32.97
2022-11-23T07:59:57.686Z,39.03
2022-11-23T08:02:25.243Z,36.08
2022-11-23T08:04:52.790Z,34.90
2022-11-23T08:07:20.350Z,37.45
2022-11-23T08:09:49.225Z,43.70
2022-11-23T08:12:16.787Z,38.72
2022-11-23T08:14:44.250Z,35.28
2022-11-23T08:17:11.823Z,35.13
2022-11-23T08:19:39.285Z,37.90
2022-11-23T08:22:06.819Z,37.58
2022-11-23T08:24:34.900Z,42.05
2022-11-23T08:27:04.022Z,38.10
2022-11-23T08:29:31.583Z,34.55
2022-11-23T08:31:59.155Z,34.42
2022-11-23T08:34:26.683Z,35.70
2022-11-23T08:36:54.166Z,39.20
2022-11-23T08:39:21.671Z,35.08
2022-11-23T08:41:49.133Z,35.15
2022-11-23T08:44:17.981Z,37.88
2022-11-23T08:46:45.433Z,34.58
2022-11-23T08:49:12.922Z,32.45
2022-11-23T08:51:42.466Z,38.97
2022-11-23T08:54:12.031Z,42.50
2022-11-23T08:56:39.568Z,31.23
2022-11-23T08:59:07.029Z,29.98
2022-11-23T09:01:35.918Z,32.72
2022-11-23T09:04:04.565Z,32.38
2022-11-23T09:06:33.684Z,33.95
2022-11-23T09:09:01.202Z,29.50
2022-11-23T09:11:28.708Z,29.10
2022-11-23T09:13:56.201Z,32.95
2022-11-23T09:16:23.714Z,31.42
2022-11-23T09:18:55.799Z,28.50
2022-11-23T09:21:24.477Z,25.85
2022-11-23T09:23:51.943Z,27.58
2022-11-23T09:26:19.462Z,25.20
2022-11-23T09:28:47.016Z,25.88
2022-11-23T09:31:14.588Z,23.00
2022-11-23T09:33:42.066Z,23.27
2022-11-23T09:36:11.036Z,23.40
2022-11-23T09:38:55.704Z,25.45
2022-11-23T09:41:34.152Z,23.52
2022-11-23T09:44:03.586Z,30.35
2022-11-23T09:46:37.144Z,25.33
2022-11-23T09:49:13.143Z,23.10
2022-11-23T09:51:42.759Z,22.92
2022-11-23T09:54:21.406Z,26.55
2022-11-23T09:56:51.161Z,24.90
2022-11-23T09:59:24.716Z,26.05
2022-11-23T10:01:52.321Z,25.52
2022-11-23T10:04:21.229Z,24.58
2022-11-23T10:06:53.221Z,22.98
2022-11-23T10:09:26.069Z,25.48
2022-11-23T10:12:05.090Z,24.80
2022-11-23T10:14:39.864Z,26.80
2022-11-23T10:17:10.885Z,24.23
2022-11-23T10:19:48.603Z,24.98
2022-11-23T10:22:22.294Z,26.58
2022-11-23T10:24:52.382Z,25.35
2022-11-23T10:27:21.062Z,22.50
2022-11-23T10:29:49.256Z,23.35
2022-11-23T10:32:26.077Z,27.95
2022-11-23T10:34:59.495Z,20.65
2022-11-23T10:37:28.327Z,25.23
2022-11-23T10:39:55.789Z,23.33
2022-11-23T10:42:25.632Z,21.35
2022-11-23T10:44:54.093Z,20.20
2022-11-23T10:47:35.106Z,23.67
2022-11-23T10:50:02.798Z,22.92
2022-11-23T10:52:32.764Z,21.35
2022-11-23T10:55:01.638Z,18.67
2022-11-23T10:57:32.268Z,22.35
2022-11-23T11:00:00.582Z,21.25
2022-11-23T11:02:28.203Z,22.85
2022-11-23T11:05:13.782Z,22.85
2022-11-23T11:07:42.691Z,17.92
2022-11-23T11:10:30.356Z,18.55
2022-11-23T11:12:57.786Z,18.45
2022-11-23T11:15:25.357Z,17.55
2022-11-23T11:17:55.925Z,21.63
2022-11-23T11:20:31.369Z,18.20
2022-11-23T11:23:01.282Z,23.20
2022-11-23T11:25:30.778Z,20.08
2022-11-23T11:27:58.903Z,20.83
2022-11-23T11:30:28.431Z,16.50
2022-11-23T11:33:04.781Z,20.67
2022-11-23T11:35:33.454Z,18.75
2022-11-23T11:38:06.472Z,20.27
2022-11-23T11:40:35.180Z,16.80
2022-11-23T11:43:05.598Z,21.00
2022-11-23T11:45:34.507Z,19.30
2022-11-23T11:48:03.974Z,14.32
2022-11-23T11:50:33.997Z,16.38
2022-11-23T11:53:05.875Z,16.33
2022-11-23T11:55:39.637Z,15.23
2022-11-23T11:58:11.022Z,14.48
2022-11-23T12:00:43.669Z,18.75
2022-11-23T12:03:19.118Z,15.50
2022-11-23T12:05:48.748Z,16.20
2022-11-23T12:08:22.309Z,15.45
2022-11-23T12:10:51.417Z,15.70
2022-11-23T12:13:20.734Z,14.88
2022-11-23T12:15:50.585Z,16.75
2022-11-23T12:18:41.567Z,16.05
2022-11-23T12:21:18.118Z,14.02
2022-11-23T12:23:51.742Z,14.05
2022-11-23T12:26:22.705Z,15.48
2022-11-23T12:28:59.435Z,13.15
2022-11-23T12:31:31.490Z,14.27
2022-11-23T12:34:08.260Z,15.15
2022-11-23T12:36:44.626Z,14.90
2022-11-23T12:39:19.557Z,13.20
2022-11-23T12:41:48.894Z,14.57
2022-11-23T12:44:31.520Z,13.93
2022-11-23T12:47:02.781Z,12.35
2022-11-23T12:49:38.808Z,12.80
2022-11-23T12:52:12.846Z,14.77
2022-11-23T12:54:46.667Z,13.52
2022-11-23T12:57:16.533Z,15.27
2022-11-23T12:59:45.784Z,15.48
2022-11-23T13:02:29.330Z,15.60
2022-11-23T13:05:11.552Z,13.77
2022-11-23T13:07:56.697Z,12.25
2022-11-23T13:10:30.654Z,14.07
2022-11-23T13:13:06.394Z,14.75
2022-11-23T13:15:44.306Z,15.23
2022-11-23T13:18:15.137Z,11.85
2022-11-23T13:20:50.492Z,15.43
2022-11-23T13:23:21.550Z,14.48
2022-11-23T13:26:03.865Z,13.00
2022-11-23T13:28:33.163Z,15.35
2022-11-23T13:31:27.587Z,16.27
2022-11-23T13:33:56.331Z,11.43
2022-11-23T13:37:11.229Z,13.88
2022-11-23T13:39:58.736Z,10.93
2022-11-23T13:42:27.628Z,11.68
2022-11-23T13:45:13.764Z,11.65
2022-11-23T13:47:44.023Z,15.00
2022-11-23T13:50:19.413Z,12.15
2022-11-23T13:52:50.180Z,12.60
2022-11-23T13:55:20.753Z,13.95
2022-11-23T13:58:08.679Z,13.65
2022-11-23T14:00:45.677Z,13.98
2022-11-23T14:03:28.050Z,13.95
2022-11-23T14:06:00.110Z,15.52
2022-11-23T14:08:28.156Z,16.38
2022-11-23T14:10:56.345Z,14.65
2022-11-23T14:13:26.172Z,13.07
2022-11-23T14:15:56.051Z,14.32
2022-11-23T14:18:36.642Z,13.27
2022-11-23T14:21:09.190Z,12.77
2022-11-23T14:23:59.994Z,13.13
2022-11-23T14:26:32.479Z,14.18
2022-11-23T14:29:27.260Z,12.45
2022-11-23T14:32:03.556Z,12.65
2022-11-23T14:34:34.851Z,14.25
2022-11-23T14:37:07.656Z,11.77
2022-11-23T14:39:53.747Z,12.50
2022-11-23T14:42:22.572Z,13.68
2022-11-23T14:44:50.765Z,17.77
2022-11-23T14:47:26.756Z,12.35
2022-11-23T14:49:54.320Z,12.43
2022-11-23T14:52:24.487Z,14.63
2022-11-23T14:54:52.825Z,15.90
2022-11-23T14:57:21.534Z,14.88
2022-11-23T14:59:50.777Z,14.68
2022-11-23T15:02:19.738Z,14.73
2022-11-23T15:04:54.830Z,13.38
2022-11-23T15:07:26.035Z,15.75
2022-11-23T15:09:56.650Z,15.88
2022-11-23T15:12:25.517Z,14.07
2022-11-23T15:14:53.874Z,16.40
2022-11-23T15:17:22.064Z,14.52
2022-11-23T15:19:56.210Z,15.80
2022-11-23T15:22:25.597Z,17.13
2022-11-23T15:24:53.354Z,16.52
2022-11-23T15:27:23.886Z,15.65
2022-11-23T15:29:52.880Z,15.63
2022-11-23T15:32:32.795Z,13.40
2022-11-23T15:35:03.627Z,15.10
2022-11-23T15:37:33.860Z,17.30
2022-11-23T15:40:01.671Z,15.25
2022-11-23T15:42:29.856Z,19.73
2022-11-23T15:44:57.336Z,20.10
2022-11-23T15:47:27.326Z,20.02
2022-11-23T15:49:58.301Z,18.10
2022-11-23T15:52:25.798Z,20.98
2022-11-23T15:54:54.705Z,17.88
2022-11-23T15:57:24.844Z,18.20
2022-11-23T15:59:57.214Z,19.95
2022-11-23T16:02:25.719Z,20.35
2022-11-23T16:05:05.161Z,18.20
2022-11-23T16:07:32.763Z,19.85
2022-11-23T16:10:15.203Z,19.70
2022-11-23T16:12:48.697Z,15.80
2022-11-23T16:15:37.488Z,19.38
2022-11-23T16:18:05.562Z,17.90
2022-11-23T16:20:33.347Z,18.02
2022-11-23T16:23:01.506Z,18.67
2022-11-23T16:25:31.607Z,18.08
2022-11-23T16:27:59.593Z,21.17
2022-11-23T16:30:28.172Z,25.38
2022-11-23T16:32:55.718Z,20.20
2022-11-23T16:35:23.182Z,23.92
2022-11-23T16:37:50.634Z,21.90
2022-11-23T16:40:18.107Z,21.45
2022-11-23T16:42:47.545Z,22.67
2022-11-23T16:45:15.354Z,24.27
2022-11-23T16:47:51.880Z,24.75
2022-11-23T16:50:19.328Z,22.00
2022-11-23T16:52:46.810Z,23.58
2022-11-23T16:55:14.409Z,23.00
2022-11-23T16:57:43.101Z,25.02
2022-11-23T17:00:16.118Z,23.58
2022-11-23T17:02:43.808Z,20.85
2022-11-23T17:05:14.964Z,27.90
2022-11-23T17:07:42.592Z,20.77
2022-11-23T17:10:10.328Z,24.80
2022-11-23T17:12:38.716Z,21.90
2022-11-23T17:15:07.509Z,25.13
2022-11-23T17:17:36.398Z,26.63
2022-11-23T17:20:04.798Z,28.85
2022-11-23T17:22:32.478Z,25.67
2022-11-23T17:24:59.988Z,26.83
2022-11-23T17:27:27.454Z,26.00
2022-11-23T17:29:57.275Z,23.92
2022-11-23T17:32:24.698Z,24.65
2022-11-23T17:34:53.601Z,29.08
2022-11-23T17:37:22.916Z,25.55
2022-11-23T17:39:50.800Z,33.88
2022-11-23T17:42:18.833Z,31.65
2022-11-23T17:44:46.315Z,30.48
2022-11-23T17:47:18.457Z,30.45
2022-11-23T17:49:45.906Z,29.48
2022-11-23T17:52:14.735Z,33.22
2022-11-23T17:54:42.194Z,31.20
2022-11-23T17:57:12.235Z,34.53
2022-11-23T17:59:39.696Z,30.50
2022-11-23T18:02:07.226Z,29.13
2022-11-23T18:04:34.806Z,32.65
2022-11-23T18:07:02.329Z,29.02
2022-11-23T18:09:31.621Z,25.80
2022-11-23T18:11:59.210Z,30.05
2022-11-23T18:14:28.781Z,32.10
2022-11-23T18:16:56.518Z,26.42
2022-11-23T18:19:24.032Z,35.58
2022-11-23T18:21:51.534Z,29.92
2022-11-23T18:24:18.974Z,32.65
2022-11-23T18:26:47.796Z,30.40
2022-11-23T18:29:17.313Z,33.95
2022-11-23T18:31:45.002Z,32.70
2022-11-23T18:34:12.597Z,27.23
2022-11-23T18:36:40.090Z,29.58
2022-11-23T18:39:07.636Z,29.25
2022-11-23T18:41:35.185Z,33.55
2022-11-23T18:44:04.153Z,35.38
2022-11-23T18:46:33.000Z,35.25
2022-11-23T18:49:00.656Z,34.83
2022-11-23T18:51:28.106Z,32.38
2022-11-23T18:53:55.743Z,32.08
2022-11-23T18:56:23.252Z,33.30
2022-11-23T18:58:50.702Z,35.75
2022-11-23T19:01:20.183Z,33.45
2022-11-23T19:03:48.754Z,30.27
2022-11-23T19:06:17.171Z,34.65
2022-11-23T19:08:46.003Z,34.58
2022-11-23T19:11:16.172Z,37.28
2022-11-23T19:13:44.742Z,33.80
2022-11-23T19:16:13.214Z,29.88
2022-11-23T19:18:42.105Z,33.92
2022-11-23T19:21:13.289Z,31.73
2022-11-23T19:23:40.829Z,33.50
2022-11-23T19:26:08.343Z,36.90
2022-11-23T19:28:35.942Z,36.00
2022-11-23T19:31:13.590Z,38.72
2022-11-23T19:33:42.661Z,35.38
2022-11-23T19:36:11.504Z,38.92
2022-11-23T19:38:39.028Z,41.10
2022-11-23T19:41:06.723Z,34.22
2022-11-23T19:43:34.276Z,38.03
2022-11-23T19:46:02.847Z,36.08
2022-11-23T19:48:30.873Z,37.83
2022-11-23T19:51:00.369Z,34.95
2022-11-23T19:53:30.885Z,37.90
2022-11-23T19:56:01.537Z,35.15
2022-11-23T19:58:30.918Z,38.63
2022-11-23T20:00:59.900Z,39.88
2022-11-23T20:03:27.401Z,38.95
2022-11-23T20:05:55.985Z,35.03
2022-11-23T20:08:25.018Z,35.63
2022-11-23T20:10:52.670Z,39.53
2022-11-23T20:13:20.197Z,33.28
2022-11-23T20:15:48.549Z,40.70
2022-11-23T20:18:16.458Z,38.50
2022-11-23T20:20:44.641Z,36.17
2022-11-23T20:23:13.523Z,40.38
2022-11-23T20:25:43.018Z,36.97
2022-11-23T20:28:12.331Z,36.13
2022-11-23T20:30:39.809Z,36.38
2022-11-23T20:33:07.424Z,41.05
2022-11-23T20:35:34.879Z,36.22
2022-11-23T20:38:02.341Z,39.28
2022-11-23T20:40:29.835Z,42.55
2022-11-23T20:42:59.466Z,35.13
2022-11-23T20:45:27.354Z,39.20
2022-11-23T20:47:55.007Z,36.03
2022-11-23T20:50:25.119Z,33.28
2022-11-23T20:52:53.746Z,37.08
2022-11-23T20:55:23.358Z,35.75
2022-11-23T20:57:51.367Z,37.03
2022-11-23T21:00:21.586Z,39.95
2022-11-23T21:02:49.610Z,31.98
2022-11-23T21:05:17.435Z,37.97
2022-11-23T21:07:45.131Z,34.78
2022-11-23T21:10:33.226Z,37.25
2022-11-23T21:13:17.886Z,40.80
2022-11-23T21:18:14.251Z,37.95
2022-11-23T21:20:43.213Z,37.28
2022-11-23T21:23:10.787Z,40.65
2022-11-23T21:25:38.334Z,40.60
2022-11-23T21:28:05.945Z,38.05
2022-11-23T21:30:33.499Z,37.45
2022-11-23T21:33:01.015Z,39.72
2022-11-23T21:35:29.851Z,43.90
2022-11-23T21:37:57.354Z,39.28
2022-11-23T21:40:24.814Z,45.40
2022-11-23T21:42:52.430Z,39.80
2022-11-23T21:45:19.933Z,44.08
2022-11-23T21:47:48.179Z,34.30
2022-11-23T21:50:15.726Z,37.60
2022-11-23T21:52:44.617Z,41.35
2022-11-23T21:55:12.062Z,46.42
2022-11-23T21:57:39.572Z,39.53
2022-11-23T22:00:07.598Z,38.63
2022-11-23T22:02:35.249Z,40.05
2022-11-23T22:05:02.949Z,40.33
2022-11-23T22:07:30.602Z,43.15
2022-11-23T22:09:59.614Z,41.03
2022-11-23T22:12:27.392Z,44.15
2022-11-23T22:14:55.021Z,42.83
2022-11-23T22:17:22.695Z,42.67
2022-11-23T22:19:50.256Z,41.08
2022-11-23T22:22:17.873Z,38.50
2022-11-23T22:24:45.468Z,39.53
2022-11-23T22:27:14.423Z,40.75
2022-11-23T22:29:41.970Z,42.35
2022-11-23T22:32:09.542Z,45.72
2022-11-23T22:34:37.951Z,47.05
2022-11-23T22:37:10.317Z,44.83
2022-11-23T22:39:38.470Z,46.60
2022-11-23T22:42:06.198Z,43.10
2022-11-23T22:44:35.443Z,50.95
2022-11-23T22:47:03.435Z,47.63
2022-11-23T22:49:31.314Z,41.95
2022-11-23T22:51:59.078Z,46.03
2022-11-23T22:54:28.803Z,45.85
2022-11-23T22:56:56.425Z,48.05
2022-11-23T22:59:24.008Z,47.83
2022-11-23T23:01:52.964Z,49.63
2022-11-23T23:04:20.558Z,53.35
2022-11-23T23:06:49.867Z,52.47
2022-11-23T23:09:17.526Z,52.08
2022-11-23T23:11:45.395Z,53.88
2022-11-23T23:14:13.004Z,100.10
2022-11-23T23:16:40.687Z,95.55
2022-11-23T23:19:10.670Z,59.83
2022-11-23T23:21:38.296Z,67.68
2022-11-23T23:24:06.114Z,72.10
2022-11-23T23:26:33.747Z,83.85
2022-11-23T23:29:01.659Z,63.75
2022-11-23T23:31:29.696Z,64.38
2022-11-23T23:33:58.037Z,73.95
2022-11-23T23:36:27.046Z,69.07
2022-11-23T23:38:54.691Z,63.83
2022-11-23T23:41:22.478Z,67.75
2022-11-23T23:43:50.145Z,60.22
2022-11-23T23:46:18.088Z,65.05
2022-11-23T23:48:45.835Z,95.93
2022-11-23T23:51:14.612Z,68.82
2022-11-23T23:53:44.090Z,89.45
2022-11-23T23:56:13.601Z,61.97
2022-11-23T23:58:41.172Z,73.43
